Date,TemperatureHighF,TemperatureAvgF,TemperatureLowF,DewpointHighF,DewpointAvgF,DewpointLowF,HumidityHigh,HumidityAvg,HumidityLow,PressureMaxIn,PressureMinIn,WindSpeedMaxMPH,WindSpeedAvgMPH,GustSpeedMaxMPH,PrecipitationSumIn
2013-3-1,55,51,46,51,49,46,100,93,81,29.87,29.81,16,6,22,0.41
2013-3-2,51,45,39,50,44,35,100,94,81,29.84,29.66,18,8,27,0.48
2013-3-3,51,39,31,38,34,30,100,82,54,29.93,29.81,16,6,22,0.02
2013-3-4,38,36,32,35,34,31,100,93,86,29.93,29.86,11,2,14,0.01
2013-3-5,44,38,37,38,36,35,92,91,82,29.93,29.79,12,3,20,0.06
2013-3-6,45,42,40,42,39,36,100,90,75,29.99,29.74,12,3,17,0.21
2013-3-7,56,43,36,47,40,36,100,93,60,30.23,29.99,5,1,9,0.04
2013-3-8,59,42,33,41,37,32,100,82,47,30.37,30.22,6,2,11,0.00
2013-3-9,54,41,30,44,36,30,100,85,57,30.63,30.37,10,2,14,0.01
2013-3-10,47,42,38,43,40,37,100,92,80,30.62,30.55,11,2,17,0.02
2013-3-11,52,45,35,46,40,34,100,85,67,30.56,30.22,10,2,12,0.17
2013-3-12,51,47,43,51,47,42,100,99,95,30.22,30.08,10,3,15,1.22
2013-3-13,55,51,48,55,50,46,100,99,94,30.26,30.15,14,2,19,0.20
2013-3-14,52,48,46,51,48,46,100,99,99,30.23,30.11,4,1,5,0.15
2013-3-15,57,48,45,56,48,44,100,99,86,30.31,30.23,7,1,11,0.11
2013-3-16,47,43,37,46,41,35,100,94,72,30.24,30.01,22,9,29,0.64
2013-3-17,47,40,37,37,35,30,94,81,56,30.30,30.08,18,10,25,0.14
2013-3-18,50,42,33,40,34,26,100,75,43,30.37,30.18,20,9,30,0.25
2013-3-19,49,40,31,42,33,25,97,77,43,30.35,29.61,15,5,21,0.25
2013-3-20,49,44,41,47,43,39,100,95,86,29.76,29.39,30,8,40,1.91
2013-3-21,43,36,31,38,34,30,100,91,72,30.33,30.11,23,6,23,0.47
2013-3-22,53,37,29,37,31,25,100,81,35,30.50,30.33,7,1,7,0.01
2013-3-23,56,41,32,39,32,28,100,74,37,30.51,30.43,6,1,6,0.00
2013-3-24,55,42,33,35,31,28,86,65,40,30.42,30.25,10,2,10,0.00
2013-3-25,66,49,37,36,33,28,75,57,25,30.26,30.08,10,1,10,0.00
2013-3-26,58,49,41,41,38,31,88,65,43,30.14,30.09,7,2,9,0.00
2013-3-27,60,48,39,45,41,38,100,80,54,30.13,30.08,8,1,10,0.00
2013-3-28,59,49,40,49,44,39,100,83,61,30.27,30.12,8,1,10,0.00
2013-3-29,66,47,36,51,42,36,100,86,50,30.40,30.27,7,1,8,0.00
2013-3-30,73,50,37,53,44,37,100,82,43,30.41,30.22,5,1,7,0.00
2013-3-31,75,53,42,48,42,38,92,70,36,30.22,30.06,5,1,8,0.00